Time;durP1;ratioP1;P1;durP2;ratioP2;P2;SDS_P1;SDS_P2;PMS_P1;PMS_P2;Temp;Humidity;BMP_temperature;BMP_pressure;BME280_temperature;BME280_humidity;BME280_pressure;Samples;Min_cycle;Max_cycle;Signal;HPM_P1;HPM_P2
2022/02/11 00:07:26;;;;;;;12.90;8.02;;;;;;;8.08;100.00;101722.88;4894560;29;20114;-71
2022/02/11 00:10:12;;;;;;;14.15;8.00;;;;;;;8.07;100.00;101723.72;4923999;29;20046;-71
2022/02/11 00:12:57;;;;;;;13.52;8.50;;;;;;;7.91;100.00;101719.22;4936683;29;20064;-71
2022/02/11 00:15:44;;;;;;;13.55;8.73;;;;;;;8.02;100.00;101718.47;4936372;29;20024;-72
2022/02/11 00:18:30;;;;;;;14.57;8.02;;;;;;;7.75;100.00;101718.22;4923409;29;20090;-72
2022/02/11 00:21:15;;;;;;;14.30;8.50;;;;;;;7.99;100.00;101715.84;4923217;29;20126;-71
2022/02/11 00:24:04;;;;;;;13.13;8.65;;;;;;;7.53;100.00;101723.19;4939013;29;20031;-72
2022/02/11 00:27:15;;;;;;;13.40;9.18;;;;;;;7.57;100.00;101724.97;4940102;29;20027;-72
2022/02/11 00:35:54;;;;;;;11.90;8.25;;;;;;;7.63;100.00;101714.63;4940125;29;20059;-72
2022/02/11 00:53:21;;;;;;;12.43;8.40;;;;;;;7.41;100.00;101703.09;4939989;29;20114;-71
2022/02/11 07:46:32;;;;;;;27.98;16.58;;;;;;;7.21;100.00;101751.50;5455324;23;20473;-73
2022/02/11 07:49:17;;;;;;;33.35;16.63;;;;;;;7.26;100.00;101751.53;4936327;29;20043;-73
2022/02/11 07:52:04;;;;;;;27.02;15.23;;;;;;;7.52;100.00;101747.53;4923843;29;20031;-74
2022/02/11 07:54:50;;;;;;;23.58;13.25;;;;;;;7.52;100.00;101750.13;4923541;29;20051;-72
2022/02/11 07:57:36;;;;;;;19.55;12.85;;;;;;;7.61;100.00;101742.41;4923395;29;20072;-73
2022/02/11 08:00:23;;;;;;;19.50;12.90;;;;;;;7.81;100.00;101746.09;4924043;29;20492;-72
2022/02/11 08:03:08;;;;;;;20.38;12.88;;;;;;;8.03;100.00;101746.31;4936479;29;20070;-72
2022/02/11 08:05:55;;;;;;;21.63;13.80;;;;;;;8.28;100.00;101743.06;4923189;29;20424;-73
2022/02/11 08:08:40;;;;;;;18.50;11.68;;;;;;;8.16;100.00;101742.09;4937151;29;20039;-74
2022/02/11 08:11:26;;;;;;;17.90;11.07;;;;;;;8.72;100.00;101749.50;4936458;29;20031;-72
2022/02/11 08:14:12;;;;;;;23.63;14.35;;;;;;;9.06;100.00;101750.56;4936439;29;20441;-72
2022/02/11 11:42:48;;;;;;;18.10;11.70;;;;;;;17.15;61.77;101576.25;5611564;23;20063;-73
2022/02/11 11:45:34;;;;;;;24.35;12.10;;;;;;;17.35;60.04;101556.19;4922946;29;20059;-74
2022/02/11 11:48:19;;;;;;;16.60;11.32;;;;;;;16.66;61.70;101562.75;4936280;29;20420;-74
2022/02/11 11:51:05;;;;;;;20.70;11.65;;;;;;;16.65;62.39;101548.69;4937264;29;20043;-74
2022/02/11 11:54:17;;;;;;;20.70;12.25;;;;;;;16.70;62.35;101543.22;4924144;29;20039;-74
2022/02/11 11:57:17;;;;;;;18.25;11.85;;;;;;;16.60;61.94;101541.78;4923464;29;20128;-75
2022/02/11 12:00:03;;;;;;;18.85;11.10;;;;;;;16.73;60.71;101545.78;4923388;29;20035;-74
2022/02/11 12:02:55;;;;;;;21.42;11.60;;;;;;;16.81;59.69;101534.09;4923700;29;20020;-76
2022/02/11 12:05:54;;;;;;;21.13;11.88;;;;;;;16.91;60.66;101534.66;4935935;29;20028;-73
2022/02/11 12:08:41;;;;;;;19.60;11.77;;;;;;;17.15;60.07;101528.59;4936276;29;20448;-74
2022/02/11 12:11:27;;;;;;;17.35;11.95;;;;;;;17.27;59.61;101525.56;4936449;29;20035;-73
2022/02/11 12:14:14;;;;;;;18.77;11.13;;;;;;;16.74;59.24;101519.28;4936711;29;20028;-74
2022/02/11 12:17:03;;;;;;;16.73;10.93;;;;;;;17.01;59.12;101523.75;4936110;29;20047;-73
2022/02/11 12:19:51;;;;;;;19.52;11.70;;;;;;;17.31;59.09;101509.53;4937514;29;20046;-74
2022/02/11 12:27:19;;;;;;;17.65;10.90;;;;;;;17.18;59.34;101507.31;4925789;29;20032;-73
2022/02/11 12:28:49;;;;;;;18.98;11.20;;;;;;;17.41;58.41;101497.72;4940542;29;20028;-72
2022/02/11 12:31:35;;;;;;;17.60;11.25;;;;;;;17.06;59.93;101495.34;4939191;29;20135;-73
2022/02/11 12:34:21;;;;;;;17.55;11.52;;;;;;;17.15;59.13;101489.75;4939719;29;20456;-73
2022/02/11 12:37:09;;;;;;;16.90;11.60;;;;;;;16.93;60.27;101491.34;4939346;29;20032;-73
2022/02/11 12:40:06;;;;;;;16.50;10.98;;;;;;;16.89;59.83;101486.19;4939932;29;20464;-73
2022/02/11 15:40:48;;;;;;;12.32;7.22;;;;;;;15.27;66.49;101467.78;5962314;23;20022;-72
2022/02/11 15:43:38;;;;;;;15.00;7.22;;;;;;;15.24;67.42;101472.28;4903598;29;20144;-71
2022/02/11 15:46:24;;;;;;;13.95;7.22;;;;;;;15.31;66.58;101477.38;4917778;29;20032;-72
2022/02/11 15:49:10;;;;;;;11.35;7.88;;;;;;;15.13;68.07;101475.19;4904621;29;20059;-72
2022/02/11 15:51:56;;;;;;;11.32;7.60;;;;;;;14.97;67.10;101475.56;4917707;29;20039;-70
2022/02/11 16:34:11;;;;;;;31.52;11.75;;;;;;;14.63;73.21;101504.50;5228713;23;20528;-73
2022/02/11 16:36:57;;;;;;;22.52;12.02;;;;;;;14.44;74.61;101511.06;4955186;29;20055;-73
2022/02/11 16:39:43;;;;;;;22.20;12.45;;;;;;;14.29;75.20;101512.25;4955273;29;20032;-74
2022/02/11 16:42:29;;;;;;;22.17;13.38;;;;;;;14.31;74.26;101513.06;4954455;29;20032;-73
2022/02/11 16:45:15;;;;;;;21.02;12.95;;;;;;;14.25;75.60;101514.97;4955042;29;20027;-72
2022/02/11 16:48:04;;;;;;;23.90;13.90;;;;;;;14.18;76.23;101506.28;4941823;29;20055;-73
2022/02/11 21:07:52;;;;;;;40.10;23.70;;;;;;;11.87;87.05;101650.69;5985375;23;20108;31
2022/02/11 21:10:38;;;;;;;39.92;23.95;;;;;;;11.83;87.58;101639.34;4862845;29;20065;-72
2022/02/11 21:13:24;;;;;;;38.88;23.15;;;;;;;11.84;85.93;101642.81;4851697;29;20369;-72
2022/02/11 21:16:09;;;;;;;38.20;22.67;;;;;;;11.86;85.51;101639.28;4869339;29;20498;-73
2022/02/11 21:18:56;;;;;;;33.97;21.13;;;;;;;11.45;88.22;101646.56;4881994;29;20033;-72
2022/02/11 21:21:42;;;;;;;38.55;22.17;;;;;;;11.60;87.31;101646.50;4882492;29;20037;-72
2022/02/11 21:24:28;;;;;;;34.22;21.15;;;;;;;11.56;86.53;101650.00;4882052;29;20043;-72
2022/02/11 21:27:14;;;;;;;35.15;22.55;;;;;;;11.45;88.11;101648.34;4882076;29;20379;-72
2022/02/11 21:30:00;;;;;;;37.88;22.08;;;;;;;11.32;88.58;101647.53;4882491;29;20088;-72
2022/02/11 21:32:46;;;;;;;35.72;20.90;;;;;;;11.50;87.91;101650.06;4882903;29;20028;-72
2022/02/11 21:35:32;;;;;;;32.70;20.48;;;;;;;11.52;87.14;101655.25;4881959;29;20033;-72
2022/02/11 21:38:21;;;;;;;37.47;20.13;;;;;;;11.47;86.98;101654.44;4882349;29;20037;-72
2022/02/11 21:41:07;;;;;;;33.90;19.77;;;;;;;11.50;86.56;101657.94;4881869;29;20036;-72
2022/02/11 21:43:53;;;;;;;35.40;20.52;;;;;;;11.31;87.43;101655.41;4881821;29;20478;-72
2022/02/11 21:46:38;;;;;;;39.97;20.88;;;;;;;11.17;89.24;101665.94;4882382;29;20035;-71
2022/02/11 21:49:24;;;;;;;35.97;21.58;;;;;;;11.09;89.09;101675.59;4881977;29;20104;-72
2022/02/11 21:52:10;;;;;;;34.50;19.55;;;;;;;11.07;89.21;101673.88;4881304;29;20025;-73
2022/02/11 21:54:56;;;;;;;35.33;19.88;;;;;;;11.14;88.96;101679.09;4881416;29;20021;-72
2022/02/11 21:57:42;;;;;;;32.10;19.45;;;;;;;11.08;89.02;101676.50;4881591;29;20367;-72
2022/02/11 22:00:28;;;;;;;32.72;18.98;;;;;;;11.09;88.20;101680.84;4881786;29;20037;-72
2022/02/11 22:03:14;;;;;;;29.40;18.85;;;;;;;11.12;89.17;101678.22;4881922;29;20043;-73
2022/02/11 22:05:59;;;;;;;32.00;19.25;;;;;;;10.88;89.60;101674.84;4881301;29;20370;-72
2022/02/11 22:08:45;;;;;;;32.00;18.42;;;;;;;10.89;88.96;101682.69;4882332;29;20050;-72
2022/02/11 22:11:33;;;;;;;30.17;18.02;;;;;;;10.96;88.70;101675.66;4881545;29;20058;-72
2022/02/11 22:14:19;;;;;;;31.52;17.65;;;;;;;11.09;87.10;101680.00;4882395;29;20033;-72
2022/02/11 22:17:05;;;;;;;28.90;17.27;;;;;;;10.82;88.81;101682.72;4880887;29;20340;-73
2022/02/11 22:19:51;;;;;;;30.30;18.73;;;;;;;10.72;90.33;101692.34;4881860;29;20128;-72
